Time;durP1;ratioP1;P1;durP2;ratioP2;P2;SDS_P1;SDS_P2;PMS_P1;PMS_P2;Temp;Humidity;BMP_temperature;BMP_pressure;BME280_temperature;BME280_humidity;BME280_pressure;Samples;Min_cycle;Max_cycle;Signal;HPM_P1;HPM_P2
2022/03/31 00:00:35;;;;;;;16.17;7.95;;;;;;;6.28;91.56;92067.06;5010655;28;20054;-46
2022/03/31 00:03:04;;;;;;;15.48;7.50;;;;;;;6.24;91.65;92054.72;5010540;28;20052;-47
2022/03/31 00:05:31;;;;;;;16.07;7.80;;;;;;;6.22;91.45;92057.91;5011150;28;20045;-46
2022/03/31 00:08:00;;;;;;;14.80;7.70;;;;;;;6.25;91.37;92054.28;5026988;28;20045;-47
2022/03/31 00:10:32;;;;;;;15.00;7.47;;;;;;;6.30;91.22;92044.81;5030470;28;20047;-47
2022/03/31 00:13:01;;;;;;;16.15;7.50;;;;;;;6.36;90.91;92059.44;5030283;28;20518;-51
2022/03/31 00:15:29;;;;;;;19.60;7.60;;;;;;;6.39;90.76;92056.59;5025072;28;20042;-46
2022/03/31 00:17:58;;;;;;;16.43;8.20;;;;;;;6.29;90.42;92049.50;5019718;28;20061;-48
2022/03/31 00:20:26;;;;;;;15.50;7.72;;;;;;;6.32;90.65;92048.66;5010853;28;20046;-49
2022/03/31 00:22:53;;;;;;;18.92;7.43;;;;;;;6.37;90.32;92055.50;5010019;28;20046;-47
2022/03/31 00:25:23;;;;;;;16.90;7.53;;;;;;;6.34;90.20;92050.94;5010638;28;20046;-46
2022/03/31 00:27:56;;;;;;;13.75;6.60;;;;;;;6.32;89.57;92047.91;5008794;28;20056;-47
2022/03/31 00:30:24;;;;;;;13.03;6.60;;;;;;;6.25;89.38;92050.81;5010626;28;20050;-46
2022/03/31 00:32:52;;;;;;;13.65;6.22;;;;;;;6.28;89.60;92045.25;5009766;28;20045;-47
2022/03/31 00:35:19;;;;;;;15.68;6.45;;;;;;;6.29;89.67;92038.59;5010460;28;20042;-47
2022/03/31 00:37:46;;;;;;;16.40;6.60;;;;;;;6.36;89.11;92032.97;5009847;28;20061;-50
2022/03/31 00:40:15;;;;;;;16.02;7.32;;;;;;;6.38;89.38;92029.81;5010592;28;20501;-51
2022/03/31 00:42:49;;;;;;;16.57;6.77;;;;;;;6.38;89.01;92022.38;5010307;28;20060;-48
2022/03/31 00:45:29;;;;;;;16.75;7.65;;;;;;;6.45;88.83;92020.66;5010443;28;20387;-47
2022/03/31 00:47:56;;;;;;;14.85;6.90;;;;;;;6.39;88.66;92017.69;5010034;28;20076;-52
2022/03/31 00:50:23;;;;;;;16.38;7.00;;;;;;;6.36;89.12;92016.63;5010475;28;20046;-46
2022/03/31 00:52:50;;;;;;;13.00;6.93;;;;;;;6.37;89.02;92014.66;5009758;28;20054;-47
2022/03/31 00:55:36;;;;;;;14.33;7.17;;;;;;;6.39;89.21;92010.28;5010433;28;20050;-51
2022/03/31 00:58:03;;;;;;;14.25;6.95;;;;;;;6.46;88.97;92014.78;5009921;28;20046;-48
2022/03/31 01:00:31;;;;;;;16.42;7.15;;;;;;;6.47;89.12;92005.38;5010303;28;20454;-48
2022/03/31 01:02:58;;;;;;;16.80;7.68;;;;;;;6.47;88.71;92010.81;5009946;28;20050;-52
2022/03/31 01:05:25;;;;;;;15.38;7.50;;;;;;;6.43;88.54;92003.97;5010210;28;20050;-48
2022/03/31 01:07:51;;;;;;;13.30;7.00;;;;;;;6.33;89.19;91998.41;5025441;28;20042;-47
2022/03/31 01:10:18;;;;;;;13.20;6.63;;;;;;;6.41;88.78;91998.94;5028581;28;20765;-48
2022/03/31 01:12:46;;;;;;;13.35;7.00;;;;;;;6.44;88.78;91992.66;5029510;28;20099;-47
2022/03/31 01:15:13;;;;;;;15.55;6.88;;;;;;;6.38;88.94;91999.84;5029618;28;20068;-51
2022/03/31 01:17:40;;;;;;;15.70;7.30;;;;;;;6.37;89.45;91996.34;5029402;28;20063;-52
2022/03/31 01:20:10;;;;;;;17.57;7.47;;;;;;;6.37;88.95;91988.16;5029776;28;20509;-50
2022/03/31 01:22:37;;;;;;;15.98;7.72;;;;;;;6.35;89.42;91984.34;5029805;28;20057;-47
2022/03/31 01:25:07;;;;;;;17.15;8.70;;;;;;;6.32;89.07;91982.50;5027621;28;21527;-51
2022/03/31 01:27:40;;;;;;;17.85;8.20;;;;;;;6.39;89.45;91976.81;5026925;28;20048;-52
2022/03/31 01:30:10;;;;;;;17.10;7.97;;;;;;;6.50;88.82;91984.66;5010837;28;20482;-47
2022/03/31 01:32:36;;;;;;;14.93;7.50;;;;;;;6.56;88.61;91972.00;5013580;28;20080;-48
2022/03/31 01:35:04;;;;;;;15.73;7.95;;;;;;;6.60;88.17;91970.72;5011995;28;20056;-46
2022/03/31 01:37:31;;;;;;;14.88;7.57;;;;;;;6.63;88.41;91962.88;5013679;28;20061;-48
2022/03/31 01:39:59;;;;;;;17.23;8.57;;;;;;;6.64;88.48;91965.16;5044677;28;20139;-47
2022/03/31 01:42:27;;;;;;;15.15;7.80;;;;;;;6.65;87.98;91963.94;5013814;28;20111;-49
2022/03/31 01:44:55;;;;;;;16.97;7.90;;;;;;;6.62;88.06;91958.59;5013144;28;20095;-47
2022/03/31 01:47:22;;;;;;;14.13;7.75;;;;;;;6.65;88.18;91952.28;5013281;28;20099;-51
2022/03/31 01:49:49;;;;;;;21.48;10.63;;;;;;;6.54;88.48;91956.13;5012929;28;20060;-48
2022/03/31 01:52:16;;;;;;;23.00;11.40;;;;;;;6.51;88.83;91954.25;5013337;28;20515;-52
2022/03/31 01:54:43;;;;;;;19.92;9.85;;;;;;;6.49;89.05;91948.47;5012948;28;20056;-47
2022/03/31 01:57:10;;;;;;;19.40;9.27;;;;;;;6.48;89.14;91941.53;5013177;28;20083;-48
2022/03/31 01:59:40;;;;;;;18.45;8.50;;;;;;;6.46;89.04;91943.94;5013309;28;20058;-51
2022/03/31 02:02:09;;;;;;;19.55;9.27;;;;;;;6.31;89.95;91949.03;5012282;28;20671;-46
2022/03/31 02:04:36;;;;;;;20.65;9.38;;;;;;;6.26;89.69;91941.44;5012948;28;20042;-46
2022/03/31 02:07:03;;;;;;;21.10;9.80;;;;;;;6.36;89.66;91936.84;5021413;28;20060;-48
2022/03/31 02:09:30;;;;;;;19.23;9.23;;;;;;;6.45;89.58;91936.94;5032922;28;20041;-47
2022/03/31 02:11:57;;;;;;;20.33;8.65;;;;;;;6.54;89.68;91931.59;5032198;28;20137;-52
2022/03/31 02:14:25;;;;;;;19.58;9.40;;;;;;;6.57;89.63;91927.22;5032870;28;20045;-52
2022/03/31 02:16:52;;;;;;;65.40;35.15;;;;;;;6.60;89.44;91926.34;5032181;28;20053;-50
2022/03/31 02:19:19;;;;;;;24.88;12.32;;;;;;;6.57;89.58;91916.31;5032403;28;20047;-47
2022/03/31 02:21:46;;;;;;;18.37;9.73;;;;;;;6.61;89.12;91922.41;5032079;28;20057;-46
2022/03/31 02:24:14;;;;;;;17.65;9.27;;;;;;;6.63;89.04;91922.75;5032359;28;20114;-50
2022/03/31 02:26:42;;;;;;;18.67;9.48;;;;;;;6.63;88.79;91919.25;5026292;28;20132;-50
2022/03/31 02:29:09;;;;;;;17.80;8.70;;;;;;;6.63;88.63;91919.25;5012456;28;20052;-47
2022/03/31 02:31:36;;;;;;;21.08;9.93;;;;;;;6.68;88.56;91924.13;5012420;28;20107;-50
2022/03/31 02:34:04;;;;;;;23.47;10.63;;;;;;;6.68;88.50;91918.69;5012097;28;20712;-52
2022/03/31 02:36:31;;;;;;;29.67;12.80;;;;;;;6.58;88.59;91913.16;5012708;28;20050;-49
2022/03/31 02:38:58;;;;;;;34.75;15.77;;;;;;;6.42;89.84;91909.78;5011869;28;20062;-47
2022/03/31 02:41:26;;;;;;;39.17;16.85;;;;;;;6.36;90.26;91909.59;5011925;28;20053;-47
2022/03/31 02:43:53;;;;;;;42.78;16.85;;;;;;;6.17;91.56;91905.91;5011907;28;20046;-47
2022/03/31 02:46:20;;;;;;;42.23;18.17;;;;;;;5.94;93.03;91905.00;5012273;28;20046;-52
2022/03/31 02:48:52;;;;;;;46.78;19.15;;;;;;;5.58;94.48;91897.91;5011451;28;20050;-47
2022/03/31 02:51:20;;;;;;;49.50;19.25;;;;;;;5.73;94.45;91900.94;5012278;28;20037;-49
2022/03/31 02:56:32;;;;;;;45.22;18.63;;;;;;;5.62;96.12;91894.31;5011968;28;20099;-48
2022/03/31 02:58:59;;;;;;;49.90;18.73;;;;;;;5.50;96.57;91890.38;5011717;28;20061;-51
2022/03/31 03:01:27;;;;;;;46.30;18.15;;;;;;;5.56;96.89;91883.22;5011095;28;20042;-53
2022/03/31 03:03:56;;;;;;;44.30;18.90;;;;;;;5.43;96.48;91882.41;5011488;28;20046;-50
2022/03/31 03:06:23;;;;;;;48.35;19.50;;;;;;;5.51;96.56;91881.75;5015536;28;20053;-48
2022/03/31 03:08:50;;;;;;;54.38;20.63;;;;;;;5.44;97.89;91879.28;5029552;28;20123;-54
2022/03/31 03:11:17;;;;;;;77.30;23.73;;;;;;;5.51;97.60;91879.03;5031415;28;20049;-48
2022/03/31 03:13:45;;;;;;;107.93;24.73;;;;;;;5.44;97.79;91879.28;5031140;28;20502;-49
2022/03/31 03:16:12;;;;;;;68.85;23.13;;;;;;;5.51;98.77;91875.56;5030094;28;20033;-50
2022/03/31 03:18:39;;;;;;;87.70;24.38;;;;;;;5.45;98.46;91882.75;5031243;28;20053;-52
2022/03/31 03:21:07;;;;;;;115.18;26.60;;;;;;;5.42;99.22;91872.75;5030559;28;21832;-50
2022/03/31 03:23:36;;;;;;;115.77;25.60;;;;;;;5.33;99.75;91862.47;5031212;28;20045;-48
2022/03/31 03:26:04;;;;;;;94.50;25.85;;;;;;;5.39;100.00;91869.69;5030886;28;20067;-49
2022/03/31 03:28:32;;;;;;;142.02;28.20;;;;;;;5.38;99.57;91870.13;5031163;28;20045;-50
2022/03/31 03:30:59;;;;;;;88.93;26.30;;;;;;;5.36;100.00;91867.81;5030691;28;20049;-55
2022/03/31 03:33:25;;;;;;;84.95;25.35;;;;;;;5.30;100.00;91869.56;5031120;28;20111;-51
2022/03/31 03:35:52;;;;;;;83.20;24.07;;;;;;;5.32;100.00;91875.31;5030680;28;20055;-46
2022/03/31 03:38:19;;;;;;;103.80;26.17;;;;;;;5.28;100.00;91876.63;5030879;28;20048;-48
2022/03/31 03:40:46;;;;;;;85.35;24.60;;;;;;;5.09;100.00;91873.66;5030525;28;20116;-51
2022/03/31 03:43:13;;;;;;;98.50;25.30;;;;;;;4.92;100.00;91877.59;5031229;28;20051;-50
2022/03/31 03:45:40;;;;;;;92.93;25.65;;;;;;;4.96;100.00;91881.00;5030422;28;20045;-52
2022/03/31 03:48:07;;;;;;;96.30;25.83;;;;;;;5.03;100.00;91871.88;5029748;28;20045;-51
2022/03/31 03:50:34;;;;;;;82.80;24.85;;;;;;;5.06;100.00;91877.22;5028642;28;20406;-48
2022/03/31 03:53:03;;;;;;;85.07;24.60;;;;;;;5.00;100.00;91881.66;5044068;28;20509;-49
2022/03/31 03:55:31;;;;;;;80.40;24.05;;;;;;;5.13;100.00;91881.69;5028598;28;20049;-47
2022/03/31 03:57:59;;;;;;;68.03;21.88;;;;;;;5.22;100.00;91867.47;5028385;28;20076;-47
2022/03/31 04:00:26;;;;;;;71.70;23.30;;;;;;;5.11;100.00;91870.47;5029046;28;20045;-51
2022/03/31 04:02:54;;;;;;;74.22;22.88;;;;;;;5.03;100.00;91869.94;5025966;28;20107;-54
2022/03/31 04:05:21;;;;;;;72.65;23.55;;;;;;;4.92;100.00;91864.03;5029819;28;20045;-49
2022/03/31 04:07:48;;;;;;;71.47;22.60;;;;;;;5.20;100.00;91859.75;5029144;28;20107;-52
2022/03/31 04:10:15;;;;;;;66.68;21.73;;;;;;;5.12;99.84;91872.78;5028148;28;20043;-50
2022/03/31 04:12:42;;;;;;;68.03;22.03;;;;;;;5.05;99.29;91866.75;5029095;28;20048;-48
2022/03/31 04:15:10;;;;;;;63.83;20.27;;;;;;;5.01;100.00;91875.03;5029554;28;20056;-48
2022/03/31 04:17:36;;;;;;;60.47;20.20;;;;;;;5.05;99.89;91869.47;5028880;28;20041;-46
2022/03/31 04:20:04;;;;;;;58.53;20.63;;;;;;;5.19;99.52;91867.16;5028907;28;20045;-47
2022/03/31 04:22:33;;;;;;;58.50;20.27;;;;;;;5.24;98.36;91862.38;5029383;28;20042;-50
2022/03/31 04:25:01;;;;;;;55.73;20.67;;;;;;;5.07;98.76;91864.38;5028674;28;20064;-46
2022/03/31 04:27:29;;;;;;;56.50;20.80;;;;;;;5.08;98.11;91863.94;5028073;28;20049;-52
2022/03/31 04:29:56;;;;;;;53.88;19.85;;;;;;;5.00;98.97;91862.63;5029683;28;20053;-49
2022/03/31 04:32:23;;;;;;;52.75;19.55;;;;;;;5.14;98.67;91856.03;5029978;28;20053;-55
2022/03/31 04:34:50;;;;;;;48.72;19.13;;;;;;;5.20;98.80;91857.03;5012064;28;20049;-52
2022/03/31 04:37:16;;;;;;;45.50;17.90;;;;;;;5.18;97.78;91852.00;5030093;28;20050;-49
2022/03/31 04:39:43;;;;;;;49.22;18.80;;;;;;;5.24;97.88;91854.22;5029643;28;20046;-47
2022/03/31 04:42:10;;;;;;;51.40;19.23;;;;;;;5.27;97.25;91850.63;5028600;28;20048;-48
2022/03/31 04:44:40;;;;;;;46.63;18.45;;;;;;;5.31;97.40;91849.34;5030138;28;20038;-53
2022/03/31 04:47:08;;;;;;;45.90;17.90;;;;;;;5.08;97.35;91857.75;5028855;28;20114;-52
2022/03/31 04:49:34;;;;;;;45.97;17.77;;;;;;;5.03;98.43;91861.00;5029338;28;20049;-48
2022/03/31 04:52:01;;;;;;;45.97;18.10;;;;;;;5.13;98.59;91859.94;5029803;28;20041;-48
2022/03/31 04:54:28;;;;;;;49.90;19.38;;;;;;;5.18;98.27;91848.53;5029970;28;20045;-51
2022/03/31 04:56:55;;;;;;;51.03;18.88;;;;;;;5.14;98.14;91851.34;5029434;28;20054;-47
2022/03/31 04:59:21;;;;;;;47.40;18.13;;;;;;;5.34;97.42;91845.75;5028642;28;20064;-47
2022/03/31 05:01:48;;;;;;;47.83;18.23;;;;;;;5.30;97.20;91853.25;5011825;28;20058;-53
2022/03/31 05:04:16;;;;;;;53.22;20.17;;;;;;;5.11;98.43;91846.78;5031931;28;20067;-49
2022/03/31 05:06:43;;;;;;;53.28;18.67;;;;;;;5.27;97.95;91848.69;5033376;28;20057;-53
2022/03/31 05:09:10;;;;;;;54.70;19.48;;;;;;;5.22;98.31;91854.63;5033768;28;20053;-49
2022/03/31 05:11:36;;;;;;;60.17;22.08;;;;;;;5.06;98.21;91841.13;5033625;28;20045;-46
2022/03/31 05:14:03;;;;;;;67.87;22.43;;;;;;;4.92;99.91;91855.88;5033282;28;20038;-47
2022/03/31 05:16:30;;;;;;;59.88;21.33;;;;;;;4.97;99.41;91852.59;5033716;28;20041;-50
2022/03/31 05:18:57;;;;;;;65.55;21.50;;;;;;;5.10;99.74;91849.94;5032694;28;20057;-48
2022/03/31 05:21:24;;;;;;;62.30;19.92;;;;;;;5.19;98.84;91847.34;5033777;28;20052;-52
2022/03/31 05:23:50;;;;;;;57.40;20.40;;;;;;;5.11;99.23;91846.00;5033219;28;20064;-47
2022/03/31 05:26:17;;;;;;;64.67;20.93;;;;;;;5.20;98.86;91843.44;5033443;28;20471;-47
2022/03/31 05:28:44;;;;;;;66.20;21.55;;;;;;;5.05;98.63;91842.31;5032934;28;20128;-51
2022/03/31 05:31:10;;;;;;;59.97;20.25;;;;;;;5.28;98.45;91839.31;5033409;28;20048;-50
2022/03/31 05:33:37;;;;;;;61.78;20.48;;;;;;;5.31;98.17;91843.13;5033149;28;20053;-47
2022/03/31 05:36:04;;;;;;;63.90;20.83;;;;;;;5.53;96.40;91837.81;5032528;28;20714;-49
2022/03/31 05:38:31;;;;;;;57.97;20.20;;;;;;;5.44;97.01;91835.75;5031865;28;20041;-48
2022/03/31 05:40:58;;;;;;;58.67;20.40;;;;;;;5.46;96.43;91836.06;5031223;28;20045;-46
2022/03/31 05:43:25;;;;;;;59.92;19.92;;;;;;;5.69;96.03;91834.22;5032878;28;20053;-52
2022/03/31 05:45:52;;;;;;;58.40;21.27;;;;;;;5.48;96.10;91827.50;5032373;28;20069;-47
2022/03/31 05:48:18;;;;;;;59.92;21.05;;;;;;;5.52;95.31;91833.59;5032957;28;20071;-49
2022/03/31 05:50:45;;;;;;;54.73;19.87;;;;;;;5.57;96.09;91824.88;5032565;28;20041;-46
2022/03/31 05:53:13;;;;;;;54.92;19.52;;;;;;;5.28;96.79;91825.72;5033029;28;20042;-46
2022/03/31 05:55:41;;;;;;;57.50;19.33;;;;;;;5.66;95.64;91827.72;5032339;28;20049;-47
2022/03/31 05:58:09;;;;;;;51.78;18.77;;;;;;;5.94;94.46;91825.31;5032748;28;20172;-48
2022/03/31 06:00:36;;;;;;;48.83;17.60;;;;;;;6.07;94.02;91833.47;5027935;28;20049;-47
2022/03/31 06:03:03;;;;;;;47.77;17.33;;;;;;;6.15;92.55;91835.53;5020326;28;20049;-49
2022/03/31 06:05:30;;;;;;;53.20;18.05;;;;;;;6.12;91.89;91828.25;5032902;28;20037;-49
2022/03/31 06:07:57;;;;;;;47.75;17.50;;;;;;;5.96;92.77;91833.81;5030823;28;20054;-50
2022/03/31 06:10:23;;;;;;;51.30;17.50;;;;;;;6.25;91.85;91833.66;5032601;28;20071;-47
2022/03/31 06:12:50;;;;;;;43.70;16.98;;;;;;;6.15;91.72;91830.06;5032317;28;20049;-47
2022/03/31 06:15:17;;;;;;;44.67;17.10;;;;;;;6.04;92.28;91831.63;5031648;28;20049;-52
2022/03/31 06:17:46;;;;;;;42.25;17.13;;;;;;;6.20;90.63;91826.06;5031980;28;20048;-50
2022/03/31 06:20:13;;;;;;;40.78;16.60;;;;;;;6.22;90.33;91831.81;5032135;28;20053;-50
2022/03/31 06:22:40;;;;;;;42.50;17.52;;;;;;;6.48;89.76;91832.53;5031848;28;20042;-51
2022/03/31 06:25:11;;;;;;;40.58;16.27;;;;;;;6.78;88.34;91827.63;5032138;28;20041;-50
2022/03/31 06:27:39;;;;;;;37.73;15.97;;;;;;;6.73;86.70;91825.47;5031993;28;20045;-47
2022/03/31 06:30:06;;;;;;;38.83;16.55;;;;;;;7.01;86.76;91818.25;5031152;28;21687;-54
2022/03/31 06:32:33;;;;;;;43.67;17.42;;;;;;;7.09;84.63;91822.25;5032314;28;20049;-47
2022/03/31 06:35:00;;;;;;;40.08;16.80;;;;;;;6.89;85.37;91824.53;5031802;28;20115;-51
2022/03/31 06:37:28;;;;;;;38.33;15.95;;;;;;;7.20;84.92;91825.34;5032024;28;20049;-47
2022/03/31 06:39:55;;;;;;;40.50;16.63;;;;;;;7.10;84.43;91826.50;5031674;28;20053;-48
2022/03/31 06:42:22;;;;;;;38.53;16.17;;;;;;;7.40;83.36;91818.78;5032264;28;20046;-48
2022/03/31 06:44:56;;;;;;;36.13;16.10;;;;;;;7.39;83.19;91823.50;5031765;28;20730;-52
2022/03/31 06:47:43;;;;;;;36.60;16.20;;;;;;;7.46;82.93;91818.97;5031354;28;20053;-51
2022/03/31 06:50:12;;;;;;;34.78;15.23;;;;;;;7.73;81.95;91821.84;5031858;28;20052;-52
2022/03/31 06:52:39;;;;;;;34.17;15.20;;;;;;;7.95;81.16;91816.31;5031789;28;20047;-47
2022/03/31 06:55:06;;;;;;;31.50;13.85;;;;;;;8.13;80.62;91820.28;5031015;28;20826;-47
2022/03/31 06:57:33;;;;;;;31.98;14.38;;;;;;;8.45;78.10;91821.00;5031794;28;20106;-47
2022/03/31 07:00:00;;;;;;;30.05;12.85;;;;;;;8.05;78.33;91821.78;5030170;28;20071;-47
2022/03/31 07:02:26;;;;;;;31.77;13.63;;;;;;;8.83;76.64;91819.81;5031493;28;20057;-48
2022/03/31 07:04:53;;;;;;;31.53;14.47;;;;;;;8.97;76.19;91817.25;5030126;28;20045;-51
2022/03/31 07:07:21;;;;;;;31.23;14.77;;;;;;;8.52;76.26;91812.53;5030531;28;20041;-47
2022/03/31 07:09:47;;;;;;;31.98;15.32;;;;;;;8.47;76.28;91811.16;5031152;28;20045;-47
2022/03/31 07:12:14;;;;;;;33.75;14.77;;;;;;;9.47;75.18;91805.31;5031669;28;20038;-47
2022/03/31 07:14:41;;;;;;;32.25;14.90;;;;;;;10.04;72.69;91805.44;5031054;28;20042;-50
2022/03/31 07:17:08;;;;;;;32.50;14.37;;;;;;;10.17;70.37;91797.75;5030056;28;20064;-44
2022/03/31 07:19:35;;;;;;;29.77;13.57;;;;;;;9.14;74.81;91808.72;5031188;28;20053;-50
2022/03/31 07:22:02;;;;;;;26.10;13.60;;;;;;;9.70;71.59;91812.09;5031039;28;20486;-47
2022/03/31 07:24:29;;;;;;;26.15;12.35;;;;;;;10.39;68.89;91808.47;5031269;28;20055;-45
2022/03/31 07:26:56;;;;;;;23.13;12.13;;;;;;;11.11;67.70;91802.19;5029957;28;20122;-48
2022/03/31 07:29:23;;;;;;;23.43;11.27;;;;;;;11.60;65.31;91809.03;5031092;28;20053;-48
2022/03/31 07:31:50;;;;;;;22.42;11.27;;;;;;;11.56;65.38;91805.72;5024687;28;20180;-50
2022/03/31 07:34:17;;;;;;;20.42;10.13;;;;;;;13.61;58.46;91801.72;5020765;28;20041;-48
2022/03/31 07:36:43;;;;;;;18.83;9.90;;;;;;;14.54;55.74;91802.19;5030782;28;20448;-47
2022/03/31 07:39:10;;;;;;;19.05;9.98;;;;;;;14.57;53.98;91792.22;5021996;28;20046;-47
2022/03/31 07:41:37;;;;;;;17.77;9.67;;;;;;;14.50;52.75;91792.63;5015893;28;20046;-45
2022/03/31 07:44:04;;;;;;;20.17;7.70;;;;;;;12.63;55.92;91795.59;5010619;28;20042;-47
2022/03/31 07:46:32;;;;;;;17.00;7.93;;;;;;;12.43;56.35;91798.31;5010985;28;20050;-49
2022/03/31 07:49:00;;;;;;;18.75;9.07;;;;;;;14.22;54.12;91792.44;5010432;28;20050;-48
2022/03/31 07:51:27;;;;;;;13.65;7.18;;;;;;;14.85;51.92;91781.31;5011249;28;20357;-51
2022/03/31 07:53:53;;;;;;;13.53;6.67;;;;;;;16.08;45.96;91785.63;5010287;28;20064;-48
2022/03/31 07:56:20;;;;;;;17.77;7.30;;;;;;;14.81;48.35;91780.03;5010885;28;20044;-48
2022/03/31 07:58:47;;;;;;;15.75;8.27;;;;;;;16.04;46.92;91779.59;5010493;28;20049;-45
2022/03/31 08:01:14;;;;;;;19.48;9.00;;;;;;;16.55;45.21;91779.56;5009561;28;20049;-54
2022/03/31 08:03:41;;;;;;;15.38;7.80;;;;;;;15.06;48.56;91776.38;5010425;28;20103;-48
2022/03/31 08:06:08;;;;;;;16.50;9.50;;;;;;;15.35;48.77;91782.72;5012491;28;20046;-54
2022/03/31 08:08:38;;;;;;;26.55;9.55;;;;;;;15.40;48.45;91772.97;5030339;28;20041;-51
2022/03/31 08:11:05;;;;;;;26.45;13.15;;;;;;;12.44;58.21;91777.84;5028114;28;20057;-48
2022/03/31 08:13:31;;;;;;;23.20;12.10;;;;;;;12.67;58.93;91787.13;5030387;28;20058;-52
2022/03/31 08:15:58;;;;;;;21.42;11.52;;;;;;;12.34;59.18;91777.22;5029991;28;20048;-47
2022/03/31 08:18:28;;;;;;;19.50;10.77;;;;;;;13.10;56.76;91777.16;5030380;28;20049;-50
2022/03/31 08:20:57;;;;;;;23.95;12.70;;;;;;;12.12;59.60;91774.91;5030063;28;20045;-50
2022/03/31 08:23:25;;;;;;;20.60;11.30;;;;;;;15.08;52.07;91765.56;5030492;28;20055;-53
2022/03/31 08:25:53;;;;;;;22.23;11.68;;;;;;;13.30;53.62;91768.13;5029690;28;20053;-53
2022/03/31 08:28:20;;;;;;;18.48;10.40;;;;;;;13.57;54.66;91774.38;5030423;28;20528;-51
2022/03/31 08:30:48;;;;;;;19.83;10.20;;;;;;;13.18;55.33;91769.22;5028392;28;20041;-50
2022/03/31 08:33:15;;;;;;;16.90;9.70;;;;;;;15.01;49.16;91766.06;5030243;28;20042;-48
2022/03/31 08:35:44;;;;;;;19.13;10.73;;;;;;;12.90;55.39;91777.19;5029926;28;20053;-51
2022/03/31 08:38:11;;;;;;;20.38;10.45;;;;;;;14.22;51.54;91770.38;5029586;28;20033;-51
2022/03/31 08:40:45;;;;;;;18.30;9.38;;;;;;;15.23;49.21;91772.91;5029803;28;20452;-52
2022/03/31 08:43:12;;;;;;;18.00;10.13;;;;;;;14.35;49.88;91767.97;5030264;28;20037;-48
2022/03/31 08:45:40;;;;;;;18.90;10.25;;;;;;;15.15;49.19;91770.63;5029495;28;20118;-47
2022/03/31 08:48:08;;;;;;;22.80;8.38;;;;;;;16.04;46.44;91765.03;5029793;28;20596;-50
2022/03/31 08:50:36;;;;;;;16.83;7.35;;;;;;;16.31;44.10;91764.22;5014796;28;20045;-48
2022/03/31 08:53:04;;;;;;;14.30;7.43;;;;;;;15.03;47.18;91769.09;5023921;28;20041;-48
2022/03/31 08:55:31;;;;;;;17.07;7.70;;;;;;;15.11;48.34;91775.66;5029869;28;20046;-50
2022/03/31 08:57:58;;;;;;;14.40;7.55;;;;;;;15.90;46.17;91767.53;5028323;28;20038;-53
2022/03/31 09:00:25;;;;;;;16.38;7.63;;;;;;;16.61;45.03;91766.44;5029791;28;20042;-51
2022/03/31 09:02:56;;;;;;;20.48;7.65;;;;;;;18.18;41.87;91764.19;5029508;28;20046;-49
2022/03/31 09:05:24;;;;;;;18.80;6.95;;;;;;;20.66;35.70;91755.53;5029891;28;20045;-54
2022/03/31 09:08:00;;;;;;;13.83;7.13;;;;;;;21.99;33.06;91757.44;5029305;28;20041;-55
2022/03/31 09:10:33;;;;;;;15.30;6.85;;;;;;;23.41;31.22;91738.66;5028437;28;20063;-54
2022/03/31 09:13:05;;;;;;;18.38;7.47;;;;;;;24.60;29.08;91740.72;5028185;28;20045;-48
2022/03/31 09:15:33;;;;;;;16.08;7.63;;;;;;;19.05;37.56;91744.16;5012291;28;20389;-49
2022/03/31 09:18:00;;;;;;;17.88;8.00;;;;;;;13.38;48.96;91760.16;5029044;28;20994;-47
2022/03/31 09:20:38;;;;;;;14.10;6.73;;;;;;;17.94;41.32;91751.75;5029826;28;20541;-49
2022/03/31 09:23:05;;;;;;;16.55;7.50;;;;;;;17.89;39.58;91749.78;5029203;28;20044;-50
2022/03/31 09:25:32;;;;;;;15.18;7.40;;;;;;;18.64;39.06;91740.28;5029651;28;20046;-52
2022/03/31 09:28:10;;;;;;;20.73;9.20;;;;;;;15.17;45.75;91743.25;5029125;28;20049;-55
2022/03/31 09:30:49;;;;;;;18.70;8.10;;;;;;;15.41;44.18;91738.53;5029423;28;20045;-50
2022/03/31 09:33:36;;;;;;;18.97;8.37;;;;;;;15.58;45.88;91734.53;5028720;28;20120;-51
2022/03/31 09:36:11;;;;;;;16.02;8.00;;;;;;;17.50;41.02;91725.78;5029066;28;20099;-54
2022/03/31 09:38:39;;;;;;;19.27;7.88;;;;;;;18.80;37.40;91726.78;5028337;28;20045;-51
2022/03/31 09:41:23;;;;;;;19.13;7.88;;;;;;;19.49;37.30;91720.59;5027637;28;20637;-50
2022/03/31 09:43:52;;;;;;;17.58;7.50;;;;;;;19.82;36.05;91718.66;5029209;28;20050;-50
2022/03/31 09:46:19;;;;;;;17.50;8.03;;;;;;;15.56;44.55;91723.22;5029534;28;20053;-47
2022/03/31 09:48:48;;;;;;;17.77;6.70;;;;;;;16.39;43.20;91722.94;5027952;28;20547;-49
2022/03/31 09:51:16;;;;;;;17.52;7.40;;;;;;;18.94;37.29;91718.00;5012598;28;20446;-49
2022/03/31 09:53:42;;;;;;;17.63;7.80;;;;;;;16.95;39.63;91724.81;5032448;28;20054;-50
2022/03/31 09:56:11;;;;;;;15.73;6.97;;;;;;;16.00;43.45;91720.22;5031677;28;20053;-52
2022/03/31 09:58:38;;;;;;;15.57;7.03;;;;;;;15.10;44.25;91718.13;5032966;28;20045;-55
2022/03/31 10:01:06;;;;;;;16.73;6.88;;;;;;;13.92;46.85;91718.28;5031853;28;20217;-50
2022/03/31 10:03:33;;;;;;;15.68;6.57;;;;;;;13.65;47.98;91727.84;5032497;28;20053;-53
2022/03/31 10:06:07;;;;;;;16.35;6.43;;;;;;;13.80;46.97;91720.19;5031946;28;20616;-50
2022/03/31 10:08:38;;;;;;;19.88;6.00;;;;;;;14.23;45.68;91716.72;5032489;28;20057;-46
2022/03/31 10:11:05;;;;;;;16.43;6.20;;;;;;;14.75;44.63;91713.75;5030324;28;20046;-51
2022/03/31 10:13:42;;;;;;;17.77;7.22;;;;;;;14.93;45.69;91712.53;5032638;28;20049;-46
2022/03/31 10:16:16;;;;;;;19.45;7.38;;;;;;;12.25;51.78;91720.31;5031502;28;22064;-50
2022/03/31 10:18:47;;;;;;;20.55;7.57;;;;;;;11.14;55.58;91715.38;5032072;28;20053;-51
2022/03/31 10:21:25;;;;;;;19.05;6.97;;;;;;;11.61;53.57;91713.66;5031095;28;20045;-49
2022/03/31 10:26:40;;;;;;;16.67;6.50;;;;;;;16.12;41.83;91703.13;5032449;28;20045;-50
2022/03/31 10:29:39;;;;;;;14.77;5.50;;;;;;;21.30;33.05;91693.19;5031490;28;20834;-50
2022/03/31 10:32:21;;;;;;;17.40;5.60;;;;;;;19.55;33.57;91695.47;5031507;28;21838;-46
2022/03/31 10:34:54;;;;;;;13.20;5.80;;;;;;;17.20;38.89;91695.22;5032032;28;20045;-55
2022/03/31 10:37:38;;;;;;;18.27;6.07;;;;;;;17.92;38.50;91700.81;5032435;28;20418;-50
2022/03/31 10:40:09;;;;;;;17.15;6.70;;;;;;;17.79;38.03;91690.31;5030039;28;20049;-53
2022/03/31 10:42:37;;;;;;;16.58;6.30;;;;;;;15.82;42.27;91686.31;5032091;28;20056;-48
2022/03/31 10:45:13;;;;;;;19.48;6.20;;;;;;;15.71;42.90;91697.34;5031241;28;20041;-50
2022/03/31 10:47:43;;;;;;;15.38;6.20;;;;;;;17.11;39.23;91693.50;5031457;28;20053;-49
2022/03/31 10:50:23;;;;;;;19.10;6.40;;;;;;;15.65;42.94;91677.97;5022736;28;20056;-48
2022/03/31 10:52:59;;;;;;;15.85;6.18;;;;;;;16.46;41.86;91686.47;5018937;28;20053;-52
2022/03/31 10:55:42;;;;;;;17.77;6.75;;;;;;;13.96;48.66;91677.44;5012145;28;20049;-50
2022/03/31 10:58:25;;;;;;;17.08;6.40;;;;;;;13.81;49.25;91672.09;5011200;28;20081;-53
2022/03/31 11:00:54;;;;;;;16.83;5.75;;;;;;;14.62;46.36;91672.78;5011068;28;20046;-53
2022/03/31 11:03:22;;;;;;;15.37;6.00;;;;;;;14.09;48.04;91668.75;5011701;28;20062;-47
2022/03/31 11:05:50;;;;;;;20.30;5.75;;;;;;;13.51;48.98;91666.88;5011351;28;20050;-48
2022/03/31 11:08:20;;;;;;;21.95;6.80;;;;;;;13.77;49.37;91657.78;5030884;28;20045;-47
2022/03/31 11:10:50;;;;;;;17.85;6.65;;;;;;;13.22;51.52;91658.81;5031234;28;20136;-49
2022/03/31 11:13:18;;;;;;;15.02;6.18;;;;;;;12.90;54.07;91658.81;5030283;28;20041;-48
2022/03/31 11:15:54;;;;;;;19.60;7.17;;;;;;;12.89;54.25;91658.03;5031063;28;20056;-51
2022/03/31 11:18:22;;;;;;;15.60;6.20;;;;;;;12.05;55.93;91655.06;5031183;28;20134;-53
2022/03/31 11:20:59;;;;;;;15.63;6.90;;;;;;;11.63;58.11;91655.47;5031068;28;20486;-47
2022/03/31 11:23:28;;;;;;;16.92;7.10;;;;;;;11.70;58.26;91657.84;5031477;28;20045;-46
2022/03/31 11:25:56;;;;;;;15.32;6.00;;;;;;;11.96;57.52;91653.22;5029774;28;20048;-47
2022/03/31 11:28:27;;;;;;;14.33;6.33;;;;;;;11.64;60.53;91657.00;5031255;28;20391;-50
2022/03/31 11:30:54;;;;;;;17.13;6.63;;;;;;;11.49;63.57;91663.28;5030453;28;20132;-54
2022/03/31 11:33:22;;;;;;;24.05;10.68;;;;;;;11.54;63.71;91654.34;5031235;28;20072;-50
2022/03/31 11:35:53;;;;;;;24.80;10.38;;;;;;;11.00;62.98;91660.00;5029440;28;20536;-48
2022/03/31 11:38:19;;;;;;;20.40;7.05;;;;;;;10.74;61.68;91667.28;5031018;28;20394;-49